sensor_id;sensor_type;location;lat;lon;timestamp;pressure;altitude;pressure_sealevel;temperature;humidity
57763;BME280;43592;42.524;12.052;2022-10-31T00:00:13;97441.31;;;10.50;100.00
57763;BME280;43592;42.524;12.052;2022-10-31T00:02:39;97442.09;;;10.51;100.00
57763;BME280;43592;42.524;12.052;2022-10-31T00:05:04;97435.31;;;10.53;100.00
57763;BME280;43592;42.524;12.052;2022-10-31T00:07:30;97439.25;;;10.56;100.00
57763;BME280;43592;42.524;12.052;2022-10-31T00:09:55;97436.69;;;10.68;100.00
57763;BME280;43592;42.524;12.052;2022-10-31T00:12:21;97434.94;;;10.72;100.00
57763;BME280;43592;42.524;12.052;2022-10-31T00:14:46;97439.97;;;10.74;100.00
57763;BME280;43592;42.524;12.052;2022-10-31T00:17:12;97434.16;;;10.72;100.00
57763;BME280;43592;42.524;12.052;2022-10-31T00:19:37;97433.06;;;10.64;100.00
57763;BME280;43592;42.524;12.052;2022-10-31T00:22:03;97438.13;;;10.57;100.00
57763;BME280;43592;42.524;12.052;2022-10-31T00:24:28;97437.53;;;10.51;100.00
57763;BME280;43592;42.524;12.052;2022-10-31T00:26:54;97437.38;;;10.48;100.00
57763;BME280;43592;42.524;12.052;2022-10-31T00:29:19;97439.56;;;10.46;100.00
57763;BME280;43592;42.524;12.052;2022-10-31T00:31:44;97436.91;;;10.46;100.00
57763;BME280;43592;42.524;12.052;2022-10-31T00:34:10;97434.22;;;10.46;100.00
57763;BME280;43592;42.524;12.052;2022-10-31T00:36:35;97435.34;;;10.45;100.00
57763;BME280;43592;42.524;12.052;2022-10-31T00:39:01;97435.16;;;10.41;100.00
57763;BME280;43592;42.524;12.052;2022-10-31T00:41:26;97438.66;;;10.33;100.00
57763;BME280;43592;42.524;12.052;2022-10-31T00:43:52;97435.94;;;10.24;100.00
57763;BME280;43592;42.524;12.052;2022-10-31T00:46:17;97436.75;;;10.16;100.00
57763;BME280;43592;42.524;12.052;2022-10-31T00:48:43;97435.66;;;10.08;100.00
57763;BME280;43592;42.524;12.052;2022-10-31T00:51:09;97435.81;;;10.03;100.00
57763;BME280;43592;42.524;12.052;2022-10-31T00:53:34;97434.09;;;9.99;100.00
57763;BME280;43592;42.524;12.052;2022-10-31T00:56:00;97437.88;;;9.98;100.00
57763;BME280;43592;42.524;12.052;2022-10-31T00:58:25;97438.66;;;9.98;100.00
57763;BME280;43592;42.524;12.052;2022-10-31T01:00:51;97443.06;;;10.03;100.00
57763;BME280;43592;42.524;12.052;2022-10-31T01:03:20;97442.09;;;10.07;100.00
57763;BME280;43592;42.524;12.052;2022-10-31T01:05:54;97438.19;;;10.14;100.00
57763;BME280;43592;42.524;12.052;2022-10-31T01:08:20;97436.13;;;10.19;100.00
57763;BME280;43592;42.524;12.052;2022-10-31T01:10:45;97429.34;;;10.22;100.00
57763;BME280;43592;42.524;12.052;2022-10-31T01:13:11;97430.31;;;10.17;100.00
57763;BME280;43592;42.524;12.052;2022-10-31T01:15:36;97434.25;;;10.11;100.00
57763;BME280;43592;42.524;12.052;2022-10-31T01:18:02;97429.38;;;10.04;100.00
57763;BME280;43592;42.524;12.052;2022-10-31T01:20:27;97427.97;;;9.98;100.00
57763;BME280;43592;42.524;12.052;2022-10-31T01:22:53;97436.75;;;9.99;100.00
57763;BME280;43592;42.524;12.052;2022-10-31T01:25:18;97439.44;;;9.99;100.00
57763;BME280;43592;42.524;12.052;2022-10-31T01:27:44;97435.34;;;10.01;100.00
57763;BME280;43592;42.524;12.052;2022-10-31T01:30:09;97428.44;;;10.00;100.00
57763;BME280;43592;42.524;12.052;2022-10-31T01:32:35;97435.06;;;9.94;100.00
57763;BME280;43592;42.524;12.052;2022-10-31T01:35:00;97428.75;;;9.90;100.00
57763;BME280;43592;42.524;12.052;2022-10-31T01:37:26;97422.47;;;9.86;100.00
57763;BME280;43592;42.524;12.052;2022-10-31T01:39:51;97431.75;;;9.80;100.00
57763;BME280;43592;42.524;12.052;2022-10-31T01:42:21;97419.63;;;9.74;100.00
57763;BME280;43592;42.524;12.052;2022-10-31T01:44:51;97430.50;;;9.69;100.00
57763;BME280;43592;42.524;12.052;2022-10-31T01:47:19;97431.41;;;9.64;100.00
57763;BME280;43592;42.524;12.052;2022-10-31T01:49:46;97427.97;;;9.63;100.00
57763;BME280;43592;42.524;12.052;2022-10-31T01:54:51;97424.66;;;9.58;100.00
57763;BME280;43592;42.524;12.052;2022-10-31T01:57:19;97419.59;;;9.56;100.00
57763;BME280;43592;42.524;12.052;2022-10-31T01:59:47;97424.81;;;9.53;100.00
57763;BME280;43592;42.524;12.052;2022-10-31T02:02:15;97418.53;;;9.49;100.00
57763;BME280;43592;42.524;12.052;2022-10-31T02:04:42;97417.06;;;9.42;100.00
57763;BME280;43592;42.524;12.052;2022-10-31T02:07:12;97426.97;;;9.33;100.00
57763;BME280;43592;42.524;12.052;2022-10-31T02:09:39;97420.03;;;9.24;100.00
57763;BME280;43592;42.524;12.052;2022-10-31T02:12:05;97423.97;;;9.17;100.00
57763;BME280;43592;42.524;12.052;2022-10-31T02:14:31;97423.78;;;9.14;100.00
57763;BME280;43592;42.524;12.052;2022-10-31T02:16:57;97427.56;;;9.13;100.00
57763;BME280;43592;42.524;12.052;2022-10-31T02:22:09;97412.94;;;9.19;100.00
57763;BME280;43592;42.524;12.052;2022-10-31T02:24:44;97422.72;;;9.24;100.00
57763;BME280;43592;42.524;12.052;2022-10-31T02:27:16;97409.03;;;9.34;100.00
57763;BME280;43592;42.524;12.052;2022-10-31T02:32:20;97410.97;;;9.51;100.00
57763;BME280;43592;42.524;12.052;2022-10-31T02:40:14;97415.53;;;9.67;100.00
57763;BME280;43592;42.524;12.052;2022-10-31T02:45:36;97415.72;;;9.62;100.00
57763;BME280;43592;42.524;12.052;2022-10-31T02:48:09;97411.59;;;9.56;100.00
57763;BME280;43592;42.524;12.052;2022-10-31T02:50:37;97416.16;;;9.47;100.00
57763;BME280;43592;42.524;12.052;2022-10-31T02:53:05;97410.94;;;9.42;100.00
57763;BME280;43592;42.524;12.052;2022-10-31T03:00:24;97408.41;;;9.19;100.00
57763;BME280;43592;42.524;12.052;2022-10-31T03:15:34;97418.25;;;9.02;100.00
57763;BME280;43592;42.524;12.052;2022-10-31T03:18:09;97427.03;;;9.02;100.00
57763;BME280;43592;42.524;12.052;2022-10-31T03:20:40;97420.91;;;9.02;100.00
57763;BME280;43592;42.524;12.052;2022-10-31T03:23:09;97427.03;;;9.02;100.00
57763;BME280;43592;42.524;12.052;2022-10-31T03:25:36;97422.47;;;9.03;100.00
57763;BME280;43592;42.524;12.052;2022-10-31T03:28:02;97425.97;;;9.03;100.00
57763;BME280;43592;42.524;12.052;2022-10-31T03:30:29;97429.56;;;9.07;100.00
57763;BME280;43592;42.524;12.052;2022-10-31T03:32:58;97426.00;;;9.12;100.00
57763;BME280;43592;42.524;12.052;2022-10-31T03:35:25;97426.28;;;9.10;100.00
57763;BME280;43592;42.524;12.052;2022-10-31T03:37:53;97428.31;;;9.05;100.00
57763;BME280;43592;42.524;12.052;2022-10-31T03:40:20;97429.72;;;9.02;100.00
57763;BME280;43592;42.524;12.052;2022-10-31T03:42:51;97431.91;;;9.00;100.00
57763;BME280;43592;42.524;12.052;2022-10-31T03:45:28;97436.94;;;9.02;100.00
57763;BME280;43592;42.524;12.052;2022-10-31T03:47:55;97431.44;;;8.98;100.00
57763;BME280;43592;42.524;12.052;2022-10-31T03:50:21;97433.91;;;8.94;100.00
57763;BME280;43592;42.524;12.052;2022-10-31T03:52:49;97444.91;;;8.93;100.00
57763;BME280;43592;42.524;12.052;2022-10-31T03:55:19;97438.66;;;8.97;100.00
57763;BME280;43592;42.524;12.052;2022-10-31T03:57:48;97435.84;;;9.11;100.00
57763;BME280;43592;42.524;12.052;2022-10-31T04:00:17;97440.00;;;9.26;100.00
57763;BME280;43592;42.524;12.052;2022-10-31T04:03:17;97445.66;;;9.33;100.00
57763;BME280;43592;42.524;12.052;2022-10-31T04:05:35;97444.13;;;9.41;100.00
57763;BME280;43592;42.524;12.052;2022-10-31T04:08:03;97435.19;;;9.46;100.00
57763;BME280;43592;42.524;12.052;2022-10-31T04:10:30;97432.66;;;9.49;100.00
57763;BME280;43592;42.524;12.052;2022-10-31T04:12:58;97438.78;;;9.50;100.00
57763;BME280;43592;42.524;12.052;2022-10-31T04:15:26;97439.09;;;9.48;100.00
57763;BME280;43592;42.524;12.052;2022-10-31T04:17:53;97427.94;;;9.46;100.00
57763;BME280;43592;42.524;12.052;2022-10-31T04:20:29;97426.69;;;9.43;100.00
57763;BME280;43592;42.524;12.052;2022-10-31T04:22:55;97434.22;;;9.41;100.00
57763;BME280;43592;42.524;12.052;2022-10-31T04:25:20;97435.63;;;9.39;100.00
57763;BME280;43592;42.524;12.052;2022-10-31T04:27:46;97436.25;;;9.36;100.00
57763;BME280;43592;42.524;12.052;2022-10-31T04:30:11;97432.31;;;9.42;100.00
57763;BME280;43592;42.524;12.052;2022-10-31T04:32:37;97439.09;;;9.48;100.00
57763;BME280;43592;42.524;12.052;2022-10-31T04:35:02;97430.47;;;9.51;100.00
57763;BME280;43592;42.524;12.052;2022-10-31T04:37:28;97435.34;;;9.49;100.00
57763;BME280;43592;42.524;12.052;2022-10-31T04:39:53;97433.09;;;9.42;100.00
57763;BME280;43592;42.524;12.052;2022-10-31T04:42:19;97438.91;;;9.36;100.00
57763;BME280;43592;42.524;12.052;2022-10-31T04:44:44;97441.28;;;9.29;100.00
57763;BME280;43592;42.524;12.052;2022-10-31T04:47:10;97437.00;;;9.28;100.00
57763;BME280;43592;42.524;12.052;2022-10-31T04:49:35;97439.69;;;9.28;100.00
57763;BME280;43592;42.524;12.052;2022-10-31T04:52:01;97433.25;;;9.29;100.00
57763;BME280;43592;42.524;12.052;2022-10-31T04:54:26;97442.34;;;9.28;100.00
57763;BME280;43592;42.524;12.052;2022-10-31T04:56:52;97437.16;;;9.22;100.00
57763;BME280;43592;42.524;12.052;2022-10-31T04:59:17;97434.47;;;9.22;100.00
57763;BME280;43592;42.524;12.052;2022-10-31T05:01:43;97437.16;;;9.22;100.00
57763;BME280;43592;42.524;12.052;2022-10-31T05:04:08;97437.78;;;9.28;100.00
57763;BME280;43592;42.524;12.052;2022-10-31T05:06:33;97437.16;;;9.31;100.00
57763;BME280;43592;42.524;12.052;2022-10-31T05:08:59;97433.25;;;9.29;100.00
57763;BME280;43592;42.524;12.052;2022-10-31T05:11:24;97435.75;;;9.25;100.00
57763;BME280;43592;42.524;12.052;2022-10-31T05:13:50;97438.56;;;9.20;100.00
57763;BME280;43592;42.524;12.052;2022-10-31T05:16:15;97438.56;;;9.20;100.00
57763;BME280;43592;42.524;12.052;2022-10-31T05:18:41;97443.09;;;9.19;100.00
57763;BME280;43592;42.524;12.052;2022-10-31T05:21:06;97436.38;;;9.22;100.00
57763;BME280;43592;42.524;12.052;2022-10-31T05:23:32;97440.78;;;9.27;100.00
57763;BME280;43592;42.524;12.052;2022-10-31T05:25:57;97429.00;;;9.28;100.00
57763;BME280;43592;42.524;12.052;2022-10-31T05:28:23;97434.97;;;9.33;100.00
57763;BME280;43592;42.524;12.052;2022-10-31T05:30:48;97435.47;;;9.35;100.00
57763;BME280;43592;42.524;12.052;2022-10-31T05:33:14;97437.22;;;9.40;100.00
57763;BME280;43592;42.524;12.052;2022-10-31T05:35:39;97430.13;;;9.44;100.00
57763;BME280;43592;42.524;12.052;2022-10-31T05:38:05;97437.69;;;9.51;100.00
57763;BME280;43592;42.524;12.052;2022-10-31T05:40:30;97428.09;;;9.58;100.00
57763;BME280;43592;42.524;12.052;2022-10-31T05:42:56;97431.41;;;9.64;100.00
57763;BME280;43592;42.524;12.052;2022-10-31T05:45:23;97437.41;;;9.70;100.00
57763;BME280;43592;42.524;12.052;2022-10-31T05:47:49;97436.47;;;9.74;100.00
57763;BME280;43592;42.524;12.052;2022-10-31T05:50:15;97443.06;;;9.85;100.00
57763;BME280;43592;42.524;12.052;2022-10-31T05:52:40;97446.69;;;9.89;100.00
57763;BME280;43592;42.524;12.052;2022-10-31T05:55:06;97441.03;;;9.91;100.00
57763;BME280;43592;42.524;12.052;2022-10-31T05:57:32;97447.00;;;9.88;100.00
57763;BME280;43592;42.524;12.052;2022-10-31T05:59:58;97440.41;;;9.85;100.00
57763;BME280;43592;42.524;12.052;2022-10-31T06:02:24;97453.28;;;9.92;100.00
57763;BME280;43592;42.524;12.052;2022-10-31T06:04:50;97446.81;;;9.93;100.00
57763;BME280;43592;42.524;12.052;2022-10-31T06:07:15;97450.75;;;9.96;100.00
57763;BME280;43592;42.524;12.052;2022-10-31T06:09:41;97444.78;;;9.99;100.00
57763;BME280;43592;42.524;12.052;2022-10-31T06:12:06;97447.63;;;10.02;100.00
57763;BME280;43592;42.524;12.052;2022-10-31T06:14:32;97449.19;;;10.03;100.00
57763;BME280;43592;42.524;12.052;2022-10-31T06:16:57;97455.31;;;10.04;100.00
57763;BME280;43592;42.524;12.052;2022-10-31T06:19:23;97457.06;;;10.00;100.00
57763;BME280;43592;42.524;12.052;2022-10-31T06:21:48;97454.22;;;9.96;100.00
57763;BME280;43592;42.524;12.052;2022-10-31T06:24:14;97466.50;;;9.97;100.00
57763;BME280;43592;42.524;12.052;2022-10-31T06:26:40;97462.09;;;10.01;100.00
57763;BME280;43592;42.524;12.052;2022-10-31T06:29:05;97472.34;;;10.08;100.00
57763;BME280;43592;42.524;12.052;2022-10-31T06:31:31;97469.66;;;10.17;100.00
57763;BME280;43592;42.524;12.052;2022-10-31T06:33:56;97474.06;;;10.30;100.00
57763;BME280;43592;42.524;12.052;2022-10-31T06:36:22;97478.75;;;10.59;100.00
57763;BME280;43592;42.524;12.052;2022-10-31T06:38:47;97469.31;;;11.00;100.00
57763;BME280;43592;42.524;12.052;2022-10-31T06:41:13;97481.78;;;11.64;99.06
57763;BME280;43592;42.524;12.052;2022-10-31T06:43:38;97488.91;;;12.31;95.36
57763;BME280;43592;42.524;12.052;2022-10-31T06:46:04;97489.09;;;13.05;91.85
57763;BME280;43592;42.524;12.052;2022-10-31T06:48:30;97490.09;;;13.86;87.30
57763;BME280;43592;42.524;12.052;2022-10-31T06:50:59;97493.97;;;14.70;82.77
57763;BME280;43592;42.524;12.052;2022-10-31T06:53:25;97490.53;;;15.48;79.11
57763;BME280;43592;42.524;12.052;2022-10-31T06:55:51;97496.56;;;16.12;76.31
57763;BME280;43592;42.524;12.052;2022-10-31T06:58:16;97500.09;;;16.75;74.51
57763;BME280;43592;42.524;12.052;2022-10-31T07:00:42;97501.41;;;17.27;72.65
57763;BME280;43592;42.524;12.052;2022-10-31T07:03:11;97499.44;;;17.77;69.63
57763;BME280;43592;42.524;12.052;2022-10-31T07:05:37;97509.78;;;18.25;67.54
57763;BME280;43592;42.524;12.052;2022-10-31T07:08:03;97505.56;;;18.61;66.94
57763;BME280;43592;42.524;12.052;2022-10-31T07:10:29;97504.91;;;19.09;63.74
57763;BME280;43592;42.524;12.052;2022-10-31T07:12:55;97511.44;;;19.45;63.75
57763;BME280;43592;42.524;12.052;2022-10-31T07:15:22;97512.09;;;19.83;62.15
57763;BME280;43592;42.524;12.052;2022-10-31T07:17:47;97508.44;;;20.23;60.69
57763;BME280;43592;42.524;12.052;2022-10-31T07:20:13;97511.69;;;20.57;60.12
57763;BME280;43592;42.524;12.052;2022-10-31T07:22:38;97516.44;;;20.78;61.30
57763;BME280;43592;42.524;12.052;2022-10-31T07:25:04;97516.09;;;21.05;60.95
57763;BME280;43592;42.524;12.052;2022-10-31T07:27:35;97508.72;;;21.30;60.50
57763;BME280;43592;42.524;12.052;2022-10-31T07:30:00;97512.25;;;21.63;59.11
57763;BME280;43592;42.524;12.052;2022-10-31T07:32:26;97523.06;;;21.95;57.97
57763;BME280;43592;42.524;12.052;2022-10-31T07:34:51;97523.03;;;22.13;57.93
57763;BME280;43592;42.524;12.052;2022-10-31T07:37:16;97521.88;;;22.25;58.05
57763;BME280;43592;42.524;12.052;2022-10-31T07:39:42;97523.75;;;22.35;56.57
57763;BME280;43592;42.524;12.052;2022-10-31T07:42:07;97517.50;;;22.46;55.84
57763;BME280;43592;42.524;12.052;2022-10-31T07:44:33;97524.91;;;22.41;55.95
57763;BME280;43592;42.524;12.052;2022-10-31T07:46:58;97519.88;;;22.40;56.28
57763;BME280;43592;42.524;12.052;2022-10-31T07:49:24;97525.69;;;22.38;56.41
57763;BME280;43592;42.524;12.052;2022-10-31T07:51:50;97520.66;;;22.33;57.40
57763;BME280;43592;42.524;12.052;2022-10-31T07:54:16;97520.25;;;22.38;56.35
57763;BME280;43592;42.524;12.052;2022-10-31T07:56:41;97519.06;;;22.47;57.87
57763;BME280;43592;42.524;12.052;2022-10-31T07:59:07;97523.31;;;22.51;58.02
57763;BME280;43592;42.524;12.052;2022-10-31T08:01:32;97521.69;;;22.64;57.21
57763;BME280;43592;42.524;12.052;2022-10-31T08:03:58;97521.19;;;22.84;57.76
57763;BME280;43592;42.524;12.052;2022-10-31T08:06:23;97522.75;;;22.89;56.94
57763;BME280;43592;42.524;12.052;2022-10-31T08:08:48;97525.06;;;22.97;58.46
57763;BME280;43592;42.524;12.052;2022-10-31T08:11:14;97521.97;;;22.88;58.85
57763;BME280;43592;42.524;12.052;2022-10-31T08:13:39;97518.44;;;22.91;59.15
57763;BME280;43592;42.524;12.052;2022-10-31T08:16:05;97518.81;;;22.93;56.65
57763;BME280;43592;42.524;12.052;2022-10-31T08:18:32;97517.25;;;22.99;56.94
57763;BME280;43592;42.524;12.052;2022-10-31T08:20:58;97509.78;;;23.07;58.50
57763;BME280;43592;42.524;12.052;2022-10-31T08:23:23;97510.94;;;23.09;57.71
57763;BME280;43592;42.524;12.052;2022-10-31T08:25:48;97526.94;;;23.07;56.67
57763;BME280;43592;42.524;12.052;2022-10-31T08:28:14;97521.13;;;23.02;57.24
57763;BME280;43592;42.524;12.052;2022-10-31T08:30:40;97509.13;;;22.85;56.44
57763;BME280;43592;42.524;12.052;2022-10-31T08:33:08;97516.66;;;22.59;57.63
57763;BME280;43592;42.524;12.052;2022-10-31T08:35:34;97510.91;;;22.39;58.46
57763;BME280;43592;42.524;12.052;2022-10-31T08:38:00;97522.28;;;22.20;60.96
57763;BME280;43592;42.524;12.052;2022-10-31T08:40:26;97519.53;;;22.09;61.31
57763;BME280;43592;42.524;12.052;2022-10-31T08:42:56;97516.06;;;22.05;60.05
57763;BME280;43592;42.524;12.052;2022-10-31T08:45:21;97525.03;;;21.95;59.06
57763;BME280;43592;42.524;12.052;2022-10-31T08:47:47;97523.88;;;21.92;61.48
57763;BME280;43592;42.524;12.052;2022-10-31T08:50:12;97522.69;;;21.93;60.45
57763;BME280;43592;42.524;12.052;2022-10-31T08:52:38;97526.56;;;21.96;60.88
57763;BME280;43592;42.524;12.052;2022-10-31T08:55:03;97530.84;;;21.93;61.69
57763;BME280;43592;42.524;12.052;2022-10-31T08:57:29;97523.88;;;21.92;60.94
57763;BME280;43592;42.524;12.052;2022-10-31T08:59:54;97521.94;;;21.86;60.73
57763;BME280;43592;42.524;12.052;2022-10-31T09:02:20;97524.28;;;21.84;62.58
57763;BME280;43592;42.524;12.052;2022-10-31T09:04:45;97523.47;;;21.80;58.73
57763;BME280;43592;42.524;12.052;2022-10-31T09:09:36;97518.81;;;21.87;62.18
57763;BME280;43592;42.524;12.052;2022-10-31T09:12:02;97525.81;;;21.92;61.98
57763;BME280;43592;42.524;12.052;2022-10-31T09:14:27;97519.19;;;21.93;60.90
57763;BME280;43592;42.524;12.052;2022-10-31T09:16:53;97526.97;;;21.94;61.71
57763;BME280;43592;42.524;12.052;2022-10-31T09:19:18;97533.59;;;21.97;62.67
57763;BME280;43592;42.524;12.052;2022-10-31T09:21:44;97520.72;;;22.05;63.40
57763;BME280;43592;42.524;12.052;2022-10-31T09:24:09;97534.34;;;22.12;61.74
57763;BME280;43592;42.524;12.052;2022-10-31T09:26:35;97533.56;;;22.18;61.38
57763;BME280;43592;42.524;12.052;2022-10-31T09:29:00;97526.91;;;22.27;62.40
57763;BME280;43592;42.524;12.052;2022-10-31T09:31:27;97530.78;;;22.36;61.37
57763;BME280;43592;42.524;12.052;2022-10-31T09:33:53;97533.09;;;22.45;61.14
57763;BME280;43592;42.524;12.052;2022-10-31T09:36:19;97518.22;;;22.57;59.96
57763;BME280;43592;42.524;12.052;2022-10-31T09:38:44;97528.31;;;22.71;60.09
57763;BME280;43592;42.524;12.052;2022-10-31T09:41:20;97524.72;;;22.84;59.72
57763;BME280;43592;42.524;12.052;2022-10-31T09:46:46;97523.84;;;23.05;56.76
57763;BME280;43592;42.524;12.052;2022-10-31T09:51:45;97529.66;;;23.11;56.24
57763;BME280;43592;42.524;12.052;2022-10-31T09:54:26;97531.97;;;23.13;55.41
57763;BME280;43592;42.524;12.052;2022-10-31T09:56:53;97534.34;;;23.11;55.63
57763;BME280;43592;42.524;12.052;2022-10-31T09:59:25;97537.78;;;23.18;55.44
57763;BME280;43592;42.524;12.052;2022-10-31T10:01:56;97531.03;;;23.34;55.54
57763;BME280;43592;42.524;12.052;2022-10-31T10:07:02;97523.34;;;23.66;53.71
57763;BME280;43592;42.524;12.052;2022-10-31T10:09:28;97524.50;;;23.72;51.84
57763;BME280;43592;42.524;12.052;2022-10-31T10:14:34;97525.97;;;23.84;51.30
57763;BME280;43592;42.524;12.052;2022-10-31T10:24:49;97519.00;;;24.14;53.68
57763;BME280;43592;42.524;12.052;2022-10-31T10:27:19;97520.75;;;24.31;53.71
57763;BME280;43592;42.524;12.052;2022-10-31T10:29:51;97518.31;;;24.40;51.75
57763;BME280;43592;42.524;12.052;2022-10-31T10:32:22;97518.25;;;24.48;53.11
57763;BME280;43592;42.524;12.052;2022-10-31T10:34:52;97517.69;;;24.60;52.86
57763;BME280;43592;42.524;12.052;2022-10-31T10:37:33;97517.09;;;24.76;52.11
57763;BME280;43592;42.524;12.052;2022-10-31T10:40:34;97514.47;;;24.96;52.62
57763;BME280;43592;42.524;12.052;2022-10-31T10:43:01;97511.97;;;25.08;50.93
57763;BME280;43592;42.524;12.052;2022-10-31T10:45:59;97509.56;;;25.14;51.29
57763;BME280;43592;42.524;12.052;2022-10-31T10:48:55;97518.25;;;25.33;50.33
57763;BME280;43592;42.524;12.052;2022-10-31T10:51:37;97516.50;;;25.46;52.66
57763;BME280;43592;42.524;12.052;2022-10-31T10:56:45;97516.91;;;25.68;47.25
57763;BME280;43592;42.524;12.052;2022-10-31T10:59:13;97506.66;;;25.72;51.22
57763;BME280;43592;42.524;12.052;2022-10-31T11:01:41;97522.03;;;25.66;52.22
57763;BME280;43592;42.524;12.052;2022-10-31T11:04:14;97506.00;;;25.64;50.89
57763;BME280;43592;42.524;12.052;2022-10-31T11:06:56;97508.94;;;25.53;50.87
57763;BME280;43592;42.524;12.052;2022-10-31T11:09:22;97504.75;;;25.45;53.09
57763;BME280;43592;42.524;12.052;2022-10-31T11:11:47;97511.19;;;25.35;51.83
57763;BME280;43592;42.524;12.052;2022-10-31T11:14:13;97510.09;;;25.29;52.71
57763;BME280;43592;42.524;12.052;2022-10-31T11:16:44;97507.91;;;25.20;52.86
57763;BME280;43592;42.524;12.052;2022-10-31T11:19:20;97498.59;;;25.14;50.21
57763;BME280;43592;42.524;12.052;2022-10-31T11:21:46;97496.31;;;25.09;51.50
57763;BME280;43592;42.524;12.052;2022-10-31T11:24:16;97495.63;;;25.01;49.48
57763;BME280;43592;42.524;12.052;2022-10-31T11:26:42;97492.72;;;24.85;52.01
57763;BME280;43592;42.524;12.052;2022-10-31T11:29:16;97488.72;;;24.66;49.86
57763;BME280;43592;42.524;12.052;2022-10-31T11:31:42;97484.69;;;24.40;50.24
57763;BME280;43592;42.524;12.052;2022-10-31T11:34:15;97496.63;;;24.23;50.76
57763;BME280;43592;42.524;12.052;2022-10-31T11:36:43;97485.31;;;23.90;51.76
57763;BME280;43592;42.524;12.052;2022-10-31T11:39:20;97486.66;;;23.71;54.04
57763;BME280;43592;42.524;12.052;2022-10-31T11:41:47;97485.69;;;23.47;52.49
57763;BME280;43592;42.524;12.052;2022-10-31T11:44:14;97489.00;;;23.20;51.51
57763;BME280;43592;42.524;12.052;2022-10-31T11:46:42;97483.72;;;22.95;52.73
57763;BME280;43592;42.524;12.052;2022-10-31T11:51:54;97485.16;;;22.51;53.77
57763;BME280;43592;42.524;12.052;2022-10-31T11:54:25;97483.28;;;22.34;54.68
57763;BME280;43592;42.524;12.052;2022-10-31T11:56:52;97481.75;;;22.22;56.76
57763;BME280;43592;42.524;12.052;2022-10-31T11:59:28;97478.25;;;22.22;54.40
57763;BME280;43592;42.524;12.052;2022-10-31T12:01:54;97472.44;;;22.19;55.80
57763;BME280;43592;42.524;12.052;2022-10-31T12:04:23;97473.19;;;22.13;57.17
57763;BME280;43592;42.524;12.052;2022-10-31T12:06:50;97465.81;;;22.06;56.89
57763;BME280;43592;42.524;12.052;2022-10-31T12:09:27;97466.59;;;22.14;54.18
57763;BME280;43592;42.524;12.052;2022-10-31T12:12:07;97466.56;;;22.25;54.11
57763;BME280;43592;42.524;12.052;2022-10-31T12:14:54;97464.97;;;22.27;56.06
57763;BME280;43592;42.524;12.052;2022-10-31T12:17:24;97467.34;;;22.22;56.93
57763;BME280;43592;42.524;12.052;2022-10-31T12:30:26;97450.28;;;21.92;55.62
57763;BME280;43592;42.524;12.052;2022-10-31T12:35:35;97451.84;;;21.93;57.04
57763;BME280;43592;42.524;12.052;2022-10-31T12:43:37;97437.84;;;21.91;57.29
57763;BME280;43592;42.524;12.052;2022-10-31T12:46:03;97439.00;;;21.90;56.99
57763;BME280;43592;42.524;12.052;2022-10-31T12:54:09;97427.78;;;21.74;56.13
57763;BME280;43592;42.524;12.052;2022-10-31T12:59:29;97441.41;;;21.60;57.62
57763;BME280;43592;42.524;12.052;2022-10-31T13:06:55;97436.78;;;21.60;57.90
57763;BME280;43592;42.524;12.052;2022-10-31T13:09:28;97429.78;;;21.63;57.38
57763;BME280;43592;42.524;12.052;2022-10-31T13:11:57;97427.41;;;21.65;58.70
57763;BME280;43592;42.524;12.052;2022-10-31T13:14:29;97429.38;;;21.64;58.52
57763;BME280;43592;42.524;12.052;2022-10-31T13:16:55;97422.72;;;21.65;55.89
57763;BME280;43592;42.524;12.052;2022-10-31T13:19:23;97426.63;;;21.64;55.61
57763;BME280;43592;42.524;12.052;2022-10-31T13:24:28;97423.53;;;21.69;55.73
57763;BME280;43592;42.524;12.052;2022-10-31T13:26:57;97420.41;;;21.74;53.41
57763;BME280;43592;42.524;12.052;2022-10-31T13:29:26;97421.94;;;21.75;54.35
57763;BME280;43592;42.524;12.052;2022-10-31T13:31:53;97427.41;;;21.72;55.49
57763;BME280;43592;42.524;12.052;2022-10-31T13:39:26;97425.88;;;21.60;55.01
57763;BME280;43592;42.524;12.052;2022-10-31T13:41:59;97427.44;;;21.58;54.68
57763;BME280;43592;42.524;12.052;2022-10-31T13:44:27;97420.06;;;21.55;54.07
57763;BME280;43592;42.524;12.052;2022-10-31T13:46:56;97422.78;;;21.55;54.65
57763;BME280;43592;42.524;12.052;2022-10-31T13:49:26;97421.22;;;21.53;53.61
57763;BME280;43592;42.524;12.052;2022-10-31T13:54:33;97422.00;;;21.58;53.08
57763;BME280;43592;42.524;12.052;2022-10-31T13:57:00;97423.16;;;21.57;54.97
57763;BME280;43592;42.524;12.052;2022-10-31T13:59:26;97421.22;;;21.53;53.94
57763;BME280;43592;42.524;12.052;2022-10-31T14:01:57;97425.88;;;21.57;54.27
57763;BME280;43592;42.524;12.052;2022-10-31T14:04:23;97426.66;;;21.53;54.35
57763;BME280;43592;42.524;12.052;2022-10-31T14:06:55;97418.50;;;21.57;53.73
57763;BME280;43592;42.524;12.052;2022-10-31T14:10:19;97425.09;;;21.56;52.37
57763;BME280;43592;42.524;12.052;2022-10-31T14:12:13;97422.78;;;21.55;51.99
57763;BME280;43592;42.524;12.052;2022-10-31T14:14:48;97422.78;;;21.55;53.00
57763;BME280;43592;42.524;12.052;2022-10-31T14:17:25;97420.44;;;21.53;52.04
57763;BME280;43592;42.524;12.052;2022-10-31T14:22:35;97418.09;;;21.48;54.30
57763;BME280;43592;42.524;12.052;2022-10-31T14:25:23;97422.78;;;21.44;53.47
57763;BME280;43592;42.524;12.052;2022-10-31T14:27:48;97413.47;;;21.41;54.25
57763;BME280;43592;42.524;12.052;2022-10-31T14:30:17;97422.41;;;21.35;55.23
57763;BME280;43592;42.524;12.052;2022-10-31T14:32:43;97412.66;;;21.30;53.84
57763;BME280;43592;42.524;12.052;2022-10-31T14:35:13;97426.28;;;21.26;55.05